createdAt,value
2022-12-29T00:00:06.936Z,99748.38
2022-12-29T00:02:33.821Z,99746.38
2022-12-29T00:05:00.586Z,99750.34
2022-12-29T00:07:27.283Z,99753.03
2022-12-29T00:09:54.069Z,99739.09
2022-12-29T00:12:20.900Z,99733.66
2022-12-29T00:15:06.097Z,99730.16
2022-12-29T00:17:33.783Z,99746.41
2022-12-29T00:20:18.867Z,99695.22
2022-12-29T00:23:04.483Z,99726.94
2022-12-29T00:25:49.922Z,99711.34
2022-12-29T00:28:35.595Z,99713.88
2022-12-29T00:31:41.020Z,99739.09
2022-12-29T00:34:30.207Z,99733.81
2022-12-29T00:36:57.634Z,99716.66
2022-12-29T00:39:42.528Z,99730.66
2022-12-29T00:42:29.178Z,99663.44
2022-12-29T00:44:55.855Z,99713.97
2022-12-29T00:47:22.605Z,99707.66
2022-12-29T00:49:49.210Z,99725.56
2022-12-29T00:52:15.956Z,99704.38
2022-12-29T00:54:45.998Z,99699.56
2022-12-29T00:57:13.464Z,99703.75
2022-12-29T00:59:41.985Z,99686.84
2022-12-29T01:02:10.076Z,99705.22
2022-12-29T01:04:37.133Z,99691.78
2022-12-29T01:07:04.093Z,99697.59
2022-12-29T01:09:50.531Z,99655.00
2022-12-29T01:12:17.258Z,99688.69
2022-12-29T01:14:44.987Z,99684.34
2022-12-29T01:17:11.609Z,99687.84
2022-12-29T01:19:38.325Z,99696.78
2022-12-29T01:22:05.043Z,99691.50
2022-12-29T01:24:31.753Z,99695.81
2022-12-29T01:26:58.379Z,99681.22
2022-12-29T01:29:25.102Z,99653.06
2022-12-29T01:31:51.941Z,99661.66
2022-12-29T01:34:18.984Z,99675.44
2022-12-29T01:36:45.840Z,99669.66
2022-12-29T01:39:12.603Z,99670.63
2022-12-29T01:41:39.502Z,99646.47
2022-12-29T01:44:43.529Z,99659.72
2022-12-29T01:47:10.322Z,99616.59
2022-12-29T01:49:36.918Z,99642.47
2022-12-29T01:52:08.920Z,99649.44
2022-12-29T01:54:42.968Z,99620.94
2022-12-29T01:57:14.533Z,99636.84
2022-12-29T01:59:56.340Z,99605.69
2022-12-29T02:02:24.555Z,99642.00
2022-12-29T02:04:54.477Z,99636.03
2022-12-29T02:07:25.713Z,99641.84
2022-12-29T02:09:53.931Z,99609.03
2022-12-29T02:12:21.979Z,99586.81
2022-12-29T02:14:51.973Z,99616.31
2022-12-29T02:17:50.311Z,99593.13
2022-12-29T02:20:54.372Z,99625.13
2022-12-29T02:23:39.845Z,99612.03
2022-12-29T02:26:33.620Z,99613.00
2022-12-29T02:29:25.118Z,99627.56
2022-12-29T02:32:08.916Z,99622.28
2022-12-29T02:35:02.568Z,99621.44
2022-12-29T02:37:39.890Z,99609.03
2022-12-29T02:40:15.571Z,99607.03
2022-12-29T02:42:42.127Z,99601.75
2022-12-29T02:45:23.149Z,99565.63
2022-12-29T02:48:17.862Z,99569.09
2022-12-29T02:51:25.565Z,99612.69
2022-12-29T02:54:13.442Z,99546.75
2022-12-29T02:56:41.013Z,99477.34
2022-12-29T02:59:08.932Z,99575.22
2022-12-29T03:02:19.064Z,99596.78
2022-12-29T03:05:13.615Z,99600.44
2022-12-29T03:08:18.283Z,99585.84
2022-12-29T03:11:04.791Z,99627.75
2022-12-29T03:13:52.765Z,99630.22
2022-12-29T03:16:29.990Z,99618.00
2022-12-29T03:18:56.657Z,99616.31
2022-12-29T03:21:23.244Z,99624.91
2022-12-29T03:23:51.169Z,99591.78
2022-12-29T03:26:20.946Z,99584.81
2022-12-29T03:28:53.222Z,99581.88
2022-12-29T03:31:22.639Z,99606.03
2022-12-29T03:33:50.007Z,99602.72
2022-12-29T03:36:34.891Z,99580.53
2022-12-29T03:39:10.310Z,99588.84
2022-12-29T03:41:37.930Z,99572.25
2022-12-29T03:44:07.587Z,99597.41
2022-12-29T03:46:34.280Z,99570.59
2022-12-29T03:49:01.126Z,99579.22
2022-12-29T03:51:27.868Z,99588.47
2022-12-29T03:53:54.536Z,99575.56
2022-12-29T03:56:21.362Z,99567.28
2022-12-29T03:58:47.988Z,99576.56
2022-12-29T04:01:14.828Z,99587.84
2022-12-29T04:03:41.568Z,99605.03
2022-12-29T04:06:08.790Z,99555.81
2022-12-29T04:08:35.543Z,99594.44
2022-12-29T04:11:02.170Z,99515.22
2022-12-29T04:13:28.913Z,99564.28
2022-12-29T04:15:55.676Z,99588.16
2022-12-29T04:18:22.442Z,99579.53
2022-12-29T04:21:00.846Z,99590.13
2022-12-29T04:23:33.098Z,99597.75
2022-12-29T04:26:00.290Z,99612.84
2022-12-29T04:28:27.835Z,99594.25
2022-12-29T04:30:54.573Z,99575.81
2022-12-29T04:33:22.161Z,99606.19
2022-12-29T04:35:49.289Z,99605.69
2022-12-29T04:38:16.840Z,99615.31
2022-12-29T04:40:45.605Z,99575.81
2022-12-29T04:43:13.156Z,99597.75
2022-12-29T04:45:44.416Z,99618.78
2022-12-29T04:48:11.337Z,99631.53
2022-12-29T04:50:38.100Z,99626.22
2022-12-29T04:53:04.930Z,99642.81
2022-12-29T04:55:31.642Z,99620.91
2022-12-29T04:57:58.225Z,99637.47
2022-12-29T05:00:24.923Z,99628.72
2022-12-29T05:02:51.917Z,99602.66
2022-12-29T05:05:19.133Z,99623.38
2022-12-29T05:07:45.856Z,99618.06
2022-12-29T05:10:12.948Z,99584.03
2022-12-29T05:12:39.943Z,99606.22
2022-12-29T05:15:08.150Z,99628.13
2022-12-29T05:17:34.860Z,99609.38
2022-12-29T05:20:01.803Z,99559.44
2022-12-29T05:22:28.615Z,99620.91
2022-12-29T05:24:55.275Z,99613.13
2022-12-29T05:27:21.920Z,99610.44
2022-12-29T05:29:48.659Z,99600.19
2022-12-29T05:32:15.398Z,99621.03
2022-12-29T05:34:42.159Z,99600.94
2022-12-29T05:37:08.902Z,99633.91
2022-12-29T05:39:35.668Z,99630.88
2022-12-29T05:42:02.375Z,99629.56
2022-12-29T05:44:29.052Z,99637.19
2022-12-29T05:46:55.832Z,99630.19
2022-12-29T05:49:22.659Z,99615.56
2022-12-29T05:51:49.358Z,99621.28
2022-12-29T05:54:15.982Z,99627.69
2022-12-29T05:56:42.704Z,99643.03
2022-12-29T05:59:09.399Z,99643.03
2022-12-29T06:01:36.188Z,99629.56
2022-12-29T06:04:03.109Z,99632.47
2022-12-29T06:06:29.917Z,99643.78
2022-12-29T06:08:56.832Z,99641.47
2022-12-29T06:11:23.534Z,99639.63
2022-12-29T06:13:50.235Z,99649.69
2022-12-29T06:16:17.269Z,99649.16
2022-12-29T06:18:44.481Z,99626.78
2022-12-29T06:21:11.097Z,99621.19
2022-12-29T06:23:37.856Z,99651.34
2022-12-29T06:26:04.584Z,99658.50
2022-12-29T06:28:31.329Z,99639.59
2022-12-29T06:30:58.486Z,99602.41
2022-12-29T06:33:25.175Z,99660.31
2022-12-29T06:35:51.980Z,99624.81
2022-12-29T06:38:18.646Z,99655.00
2022-12-29T06:40:46.256Z,99664.88
2022-12-29T06:43:13.368Z,99644.31
2022-12-29T06:45:41.339Z,99680.91
2022-12-29T06:48:08.561Z,99675.41
2022-12-29T06:50:35.275Z,99638.59
2022-12-29T06:53:02.125Z,99674.06
2022-12-29T06:55:29.275Z,99648.63
2022-12-29T06:57:59.498Z,99662.75
2022-12-29T07:00:26.628Z,99570.69
2022-12-29T07:02:56.602Z,99663.50
2022-12-29T07:05:23.467Z,99684.66
2022-12-29T07:07:50.211Z,99664.63
2022-12-29T07:10:16.945Z,99669.78
2022-12-29T07:12:43.951Z,99672.13
2022-12-29T07:15:11.037Z,99674.63
2022-12-29T07:17:37.760Z,99678.44
2022-12-29T07:20:05.001Z,99639.66
2022-12-29T07:22:31.853Z,99683.09
2022-12-29T07:24:58.479Z,99672.78
2022-12-29T07:27:25.223Z,99701.69
2022-12-29T07:29:51.884Z,99656.59
2022-12-29T07:32:18.603Z,99689.94
2022-12-29T07:34:48.337Z,99646.78
2022-12-29T07:37:18.049Z,99683.81
2022-12-29T07:39:45.075Z,99688.66
2022-12-29T07:42:11.858Z,99697.56
2022-12-29T07:44:38.643Z,99702.38
2022-12-29T07:47:05.410Z,99631.56
2022-12-29T07:49:32.132Z,99671.50
2022-12-29T08:13:23.719Z,99679.44
2022-12-29T08:15:50.862Z,99695.56
2022-12-29T08:18:17.597Z,99704.00
2022-12-29T08:20:44.284Z,99713.16
2022-12-29T08:23:11.395Z,99711.00
2022-12-29T08:25:38.117Z,99697.09
2022-12-29T08:28:04.934Z,99709.72
2022-12-29T08:30:31.642Z,99711.72
2022-12-29T08:32:58.334Z,99697.63
2022-12-29T08:35:24.973Z,99699.78
2022-12-29T08:37:51.745Z,99704.47
2022-12-29T08:40:18.517Z,99704.28
2022-12-29T08:42:45.331Z,99659.97
2022-12-29T08:45:12.057Z,99717.84
2022-12-29T08:47:39.373Z,99676.94
2022-12-29T08:50:06.868Z,99691.19
2022-12-29T08:52:33.748Z,99706.09
2022-12-29T08:55:00.474Z,99717.03
2022-12-29T08:57:27.222Z,99705.06
2022-12-29T08:59:53.910Z,99694.50
2022-12-29T09:02:24.456Z,99694.69
2022-12-29T09:04:51.972Z,99690.34
2022-12-29T09:07:18.756Z,99698.41
2022-12-29T09:09:45.446Z,99692.53
2022-12-29T09:12:12.335Z,99701.78
2022-12-29T09:14:39.263Z,99704.69
2022-12-29T09:17:24.680Z,99712.66
2022-12-29T09:19:51.593Z,99713.69
2022-12-29T09:22:18.260Z,99652.28
2022-12-29T09:24:44.991Z,99734.25
2022-12-29T09:27:11.692Z,99708.00
2022-12-29T09:29:38.352Z,99691.81
2022-12-29T09:32:07.811Z,99738.84
2022-12-29T09:34:35.042Z,99731.13
2022-12-29T09:37:01.782Z,99744.38
2022-12-29T09:39:28.563Z,99765.38
2022-12-29T09:42:13.973Z,99729.53
2022-12-29T09:45:08.878Z,99746.03
2022-12-29T09:47:36.357Z,99747.84
2022-12-29T09:50:10.675Z,99750.13
2022-12-29T09:53:08.232Z,99727.94
2022-12-29T09:56:02.650Z,99714.19
2022-12-29T09:59:20.357Z,99776.31
2022-12-29T10:01:54.682Z,99781.75
2022-12-29T10:04:21.585Z,99754.88
2022-12-29T10:07:27.330Z,99789.06
2022-12-29T10:09:40.477Z,99778.75
2022-12-29T10:12:33.444Z,99772.50
2022-12-29T10:15:07.508Z,99781.25
2022-12-29T10:17:43.275Z,99785.72
2022-12-29T10:20:45.481Z,99707.03
2022-12-29T10:23:21.268Z,99781.25
2022-12-29T10:25:48.660Z,99802.28
2022-12-29T10:29:00.502Z,99798.94
2022-12-29T10:31:36.866Z,99806.88
2022-12-29T10:34:15.829Z,99754.94
2022-12-29T10:36:49.836Z,99775.31
2022-12-29T10:39:22.486Z,99812.41
2022-12-29T10:42:21.142Z,99803.97
2022-12-29T10:44:48.562Z,99813.41
2022-12-29T10:47:21.762Z,99819.50
2022-12-29T10:49:49.783Z,99794.91
2022-12-29T10:52:21.132Z,99810.38
2022-12-29T10:55:04.105Z,99850.47
2022-12-29T10:57:42.301Z,99847.75
2022-12-29T11:00:25.425Z,99858.69
2022-12-29T11:03:17.227Z,99857.72
2022-12-29T11:06:07.855Z,99879.09
2022-12-29T11:08:41.996Z,99850.75
2022-12-29T11:11:10.820Z,99862.03
2022-12-29T11:13:59.564Z,99818.69
2022-12-29T11:16:35.331Z,99838.13
2022-12-29T11:19:03.188Z,99898.66
2022-12-29T11:21:43.359Z,99886.28
2022-12-29T11:24:44.915Z,99897.31
2022-12-29T11:27:25.974Z,99866.09
2022-12-29T11:29:54.571Z,99887.63
2022-12-29T11:32:33.183Z,99917.88
2022-12-29T11:35:00.230Z,99915.03
2022-12-29T11:37:35.423Z,99917.66
2022-12-29T11:40:17.879Z,99926.66
2022-12-29T11:42:57.794Z,99941.69
2022-12-29T11:45:33.517Z,99923.63
2022-12-29T11:48:08.883Z,99940.25
2022-12-29T11:50:40.175Z,99946.59
2022-12-29T11:53:27.695Z,99948.50
2022-12-29T11:56:07.349Z,99930.13
2022-12-29T11:58:37.615Z,99926.19
2022-12-29T12:01:25.177Z,99949.25
2022-12-29T12:04:07.333Z,99928.78
2022-12-29T12:06:39.866Z,99922.09
2022-12-29T12:09:20.634Z,99959.53
2022-12-29T12:11:47.992Z,99976.88
2022-12-29T12:14:36.483Z,99968.22
2022-12-29T12:17:13.424Z,99972.53
2022-12-29T12:19:45.646Z,99988.81
2022-12-29T12:22:20.637Z,99979.28
2022-12-29T12:24:57.041Z,99991.59
2022-12-29T12:27:41.006Z,99990.72
2022-12-29T12:30:31.361Z,100001.09
2022-12-29T12:33:06.788Z,99998.50
2022-12-29T12:35:49.204Z,99986.47
2022-12-29T12:38:41.753Z,99994.97
2022-12-29T12:41:21.652Z,100014.41
2022-12-29T12:44:17.952Z,99998.38
2022-12-29T12:46:47.786Z,100041.41
2022-12-29T12:49:36.004Z,100028.84
2022-12-29T12:52:13.810Z,100036.66
2022-12-29T12:55:22.094Z,100018.66
2022-12-29T12:58:18.128Z,100039.22
2022-12-29T13:01:08.224Z,100050.44
2022-12-29T13:04:01.295Z,100064.69
2022-12-29T13:06:52.979Z,100067.97
2022-12-29T13:09:42.143Z,100065.25
2022-12-29T13:12:18.278Z,100068.66
2022-12-29T13:15:03.813Z,100068.66
2022-12-29T13:17:58.576Z,100073.97
2022-12-29T13:20:28.195Z,100077.63
2022-12-29T13:23:38.654Z,100087.06
2022-12-29T13:26:43.616Z,100085.72
2022-12-29T13:29:23.237Z,100086.00
2022-12-29T13:32:18.992Z,100069.91
2022-12-29T13:35:04.320Z,100093.81
2022-12-29T13:37:35.050Z,100039.72
2022-12-29T13:40:22.299Z,100082.91
2022-12-29T13:42:49.967Z,100054.75
2022-12-29T13:45:20.351Z,100067.25
2022-12-29T13:48:03.510Z,100099.63
2022-12-29T13:50:36.192Z,100096.28
2022-12-29T13:53:12.147Z,100096.00
2022-12-29T13:55:57.607Z,100114.53
2022-12-29T13:58:37.968Z,100092.56
2022-12-29T14:01:41.604Z,100114.59
2022-12-29T14:04:14.900Z,100078.75
2022-12-29T14:06:43.393Z,100111.69
2022-12-29T14:09:39.362Z,100110.44
2022-12-29T14:12:37.208Z,100117.97
2022-12-29T14:15:05.338Z,100125.81
2022-12-29T14:17:32.011Z,100098.03
2022-12-29T14:19:58.943Z,100119.19
2022-12-29T14:22:33.013Z,100120.88
2022-12-29T14:25:01.046Z,100131.47
2022-12-29T14:27:30.724Z,100123.97
2022-12-29T14:29:57.474Z,100109.81
2022-12-29T14:32:26.923Z,100139.59
2022-12-29T14:34:58.527Z,100143.06
2022-12-29T14:37:26.922Z,100120.69
2022-12-29T14:40:26.129Z,100144.03
2022-12-29T14:42:55.499Z,100107.38
2022-12-29T14:45:22.076Z,100140.69
2022-12-29T14:47:51.337Z,100128.19
2022-12-29T14:50:22.584Z,100149.06
2022-12-29T14:53:04.065Z,100091.69
2022-12-29T14:55:56.648Z,100156.59
2022-12-29T14:58:32.650Z,100108.78
2022-12-29T15:01:00.723Z,100143.59
2022-12-29T15:03:34.035Z,100166.63
2022-12-29T15:06:12.479Z,100165.28
2022-12-29T15:09:01.444Z,100145.53
2022-12-29T15:11:34.179Z,100167.78
2022-12-29T15:14:00.891Z,100151.91
2022-12-29T15:16:37.225Z,100165.97
2022-12-29T15:19:06.229Z,100166.69
2022-12-29T15:21:36.574Z,100172.22
2022-12-29T15:24:06.683Z,100168.06
2022-12-29T15:26:48.226Z,100117.72
2022-12-29T15:29:48.109Z,100176.41
2022-12-29T15:32:21.421Z,100146.66
2022-12-29T15:34:53.996Z,100136.19
2022-12-29T15:37:32.907Z,100172.78
2022-12-29T15:39:59.859Z,100157.22
2022-12-29T15:42:48.305Z,100174.75
2022-12-29T15:45:16.012Z,100159.44
2022-12-29T15:47:47.585Z,100186.69
2022-12-29T15:50:23.259Z,100156.66
2022-12-29T15:52:50.379Z,100179.31
2022-12-29T15:55:38.415Z,100140.22
2022-12-29T15:58:18.522Z,100179.75
2022-12-29T16:00:50.491Z,100188.91
2022-12-29T16:03:17.780Z,100153.56
2022-12-29T16:05:54.912Z,100194.91
2022-12-29T16:08:38.112Z,100191.69
2022-12-29T16:11:23.459Z,100141.63
2022-12-29T16:13:52.027Z,100196.41
2022-12-29T16:16:29.402Z,100179.59
2022-12-29T16:18:58.246Z,100160.28
2022-12-29T16:21:34.078Z,100171.66
2022-12-29T16:24:08.648Z,100184.19
2022-12-29T16:26:35.664Z,100175.28
2022-12-29T16:29:06.234Z,100173.91
2022-12-29T16:31:32.757Z,100191.16
2022-12-29T16:33:59.945Z,100157.22
2022-12-29T16:36:30.220Z,100176.28
2022-12-29T16:39:34.511Z,100178.66
2022-12-29T16:42:01.748Z,100143.88
2022-12-29T16:44:31.267Z,100232.88
2022-12-29T16:47:00.761Z,100232.75
2022-12-29T16:49:28.339Z,100206.75
2022-12-29T16:51:56.580Z,100191.81
2022-12-29T16:54:26.566Z,100199.47
2022-12-29T16:56:54.098Z,100234.00
2022-12-29T16:59:26.607Z,100227.59
2022-12-29T17:01:53.455Z,100176.31
2022-12-29T17:04:20.204Z,100219.75
2022-12-29T17:06:47.138Z,100219.75
2022-12-29T17:09:25.403Z,100222.41
2022-12-29T17:12:00.327Z,100231.75
2022-12-29T17:14:38.269Z,100247.31
2022-12-29T17:17:10.983Z,100242.00
2022-12-29T17:19:39.045Z,100230.31
2022-12-29T17:22:27.675Z,100244.81
2022-12-29T17:24:56.174Z,100246.88
2022-12-29T17:27:47.237Z,100172.09
2022-12-29T17:30:20.575Z,100251.03
2022-12-29T17:32:53.646Z,100186.81
2022-12-29T17:35:23.115Z,100249.91
2022-12-29T17:37:51.118Z,100256.41
2022-12-29T17:40:24.621Z,100258.88
2022-12-29T17:42:54.560Z,100239.53
2022-12-29T17:45:24.536Z,100233.13
2022-12-29T17:47:51.773Z,100256.06
2022-12-29T17:50:25.000Z,100230.13
2022-12-29T17:53:00.683Z,100274.16
2022-12-29T17:55:34.632Z,100278.84
2022-12-29T17:58:17.187Z,100281.34
2022-12-29T18:00:44.283Z,100279.38
2022-12-29T18:03:19.204Z,100283.28
2022-12-29T18:05:46.162Z,100293.53
2022-12-29T18:08:12.931Z,100281.84
2022-12-29T18:10:40.098Z,100277.09
2022-12-29T18:13:07.748Z,100291.31
2022-12-29T18:15:36.465Z,100287.53
2022-12-29T18:18:16.792Z,100301.56
2022-12-29T18:20:45.202Z,100306.13
2022-12-29T18:23:20.405Z,100318.63
2022-12-29T18:25:50.336Z,100328.47
2022-12-29T18:28:17.264Z,100337.38
2022-12-29T18:30:44.181Z,100275.91
2022-12-29T18:33:24.960Z,100303.41
2022-12-29T18:35:59.320Z,100321.53
2022-12-29T18:38:26.395Z,100314.81
2022-12-29T18:40:53.869Z,100242.72
2022-12-29T18:43:21.050Z,100324.94
2022-12-29T18:45:47.804Z,100280.47
2022-12-29T18:48:15.826Z,100330.94
2022-12-29T18:50:43.347Z,100300.09
2022-12-29T18:53:22.612Z,100335.25
2022-12-29T18:55:49.680Z,100347.66
2022-12-29T18:58:16.430Z,100359.88
2022-12-29T19:00:43.868Z,100361.56
2022-12-29T19:03:16.605Z,100352.38
2022-12-29T19:05:44.977Z,100361.56
2022-12-29T19:08:12.126Z,100359.31
2022-12-29T19:10:40.449Z,100368.50
2022-12-29T19:13:07.211Z,100378.81
2022-12-29T19:15:37.956Z,100358.66
2022-12-29T19:18:42.524Z,100374.81
2022-12-29T19:20:54.959Z,100350.03
2022-12-29T19:23:24.077Z,100373.91
2022-12-29T19:25:51.372Z,100363.63
2022-12-29T19:28:24.418Z,100373.66
2022-12-29T19:30:53.017Z,100370.56
2022-12-29T19:33:21.775Z,100361.31
2022-12-29T19:35:50.121Z,100378.03
2022-12-29T19:38:17.356Z,100349.00
2022-12-29T19:40:49.157Z,100357.50
2022-12-29T19:43:15.924Z,100353.13
2022-12-29T19:45:44.805Z,100355.66
2022-12-29T19:48:16.965Z,100359.84
2022-12-29T19:50:44.392Z,100319.59
2022-12-29T19:53:13.919Z,100370.19
2022-12-29T19:55:47.799Z,100373.91
2022-12-29T19:58:15.058Z,100362.19
2022-12-29T20:00:43.555Z,100384.59
2022-12-29T20:03:11.028Z,100386.66
2022-12-29T20:05:38.637Z,100385.38
2022-12-29T20:08:05.380Z,100379.63
2022-12-29T20:10:32.048Z,100391.16
2022-12-29T20:12:58.819Z,100382.34
2022-12-29T20:15:25.607Z,100407.81
2022-12-29T20:20:38.987Z,100363.47
2022-12-29T20:23:05.705Z,100343.88
2022-12-29T20:25:47.982Z,100387.16
2022-12-29T20:28:16.151Z,100394.31
2022-12-29T20:30:43.199Z,100381.19
2022-12-29T20:33:10.066Z,100403.34
2022-12-29T20:35:37.198Z,100403.56
2022-12-29T20:38:04.650Z,100385.28
2022-12-29T20:40:31.356Z,100373.19
2022-12-29T20:42:58.128Z,100413.06
2022-12-29T20:45:25.198Z,100366.88
2022-12-29T20:47:52.101Z,100426.25
2022-12-29T20:50:18.797Z,100430.09
2022-12-29T20:52:46.850Z,100399.00
2022-12-29T20:55:14.161Z,100423.50
2022-12-29T20:58:14.122Z,100443.88
2022-12-29T21:00:30.673Z,100443.88
2022-12-29T21:03:01.016Z,100447.34
2022-12-29T21:05:29.078Z,100456.34
2022-12-29T21:07:56.297Z,100455.38
2022-12-29T21:10:23.217Z,100462.47
2022-12-29T21:12:50.161Z,100430.88
2022-12-29T21:15:17.247Z,100439.50
2022-12-29T21:17:44.473Z,100469.91
2022-12-29T21:20:20.233Z,100445.97
2022-12-29T21:22:47.688Z,100442.84
2022-12-29T21:25:14.765Z,100424.94
2022-12-29T21:27:44.410Z,100467.63
2022-12-29T21:30:12.076Z,100443.34
2022-12-29T21:32:39.069Z,100452.69
2022-12-29T21:35:06.281Z,100389.16
2022-12-29T21:37:32.982Z,100454.84
2022-12-29T21:39:59.657Z,100425.38
2022-12-29T21:42:29.143Z,100456.75
2022-12-29T21:45:20.131Z,100475.44
2022-12-29T21:48:06.269Z,100465.13
2022-12-29T21:50:32.983Z,100418.47
2022-12-29T21:52:59.633Z,100476.59
2022-12-29T21:55:26.326Z,100478.53
2022-12-29T21:58:11.361Z,100469.41
2022-12-29T22:00:56.743Z,100431.97
2022-12-29T22:03:41.882Z,100453.16
2022-12-29T22:06:30.219Z,100449.34
2022-12-29T22:09:15.302Z,100461.78
2022-12-29T22:12:00.684Z,100483.41
2022-12-29T22:14:27.379Z,100470.00
2022-12-29T22:16:54.020Z,100498.63
2022-12-29T22:19:20.804Z,100493.00
2022-12-29T22:21:47.516Z,100512.19
2022-12-29T22:24:14.160Z,100501.03
2022-12-29T22:26:40.902Z,100503.19
2022-12-29T22:29:07.561Z,100519.09
2022-12-29T22:31:34.427Z,100529.66
2022-12-29T22:34:03.265Z,100544.66
2022-12-29T22:36:30.802Z,100542.13
2022-12-29T22:38:57.584Z,100531.72
2022-12-29T22:41:24.468Z,100544.91
2022-12-29T22:43:51.283Z,100557.47
2022-12-29T22:46:18.105Z,100557.84
2022-12-29T22:48:44.869Z,100542.16
2022-12-29T22:51:11.574Z,100501.06
2022-12-29T22:53:38.593Z,100571.50
2022-12-29T22:56:08.405Z,100535.78
2022-12-29T22:58:35.399Z,100537.59
2022-12-29T23:01:02.709Z,100559.53
2022-12-29T23:03:29.470Z,100526.56
2022-12-29T23:06:00.979Z,100573.78
2022-12-29T23:08:29.211Z,100578.56
2022-12-29T23:10:55.815Z,100581.19
2022-12-29T23:13:22.530Z,100594.38
2022-12-29T23:15:49.301Z,100579.50
2022-12-29T23:18:16.886Z,100586.22
2022-12-29T23:20:44.577Z,100579.50
2022-12-29T23:23:11.780Z,100608.72
2022-12-29T23:25:39.023Z,100619.53
2022-12-29T23:28:08.671Z,100597.72
2022-12-29T23:30:35.635Z,100607.78
2022-12-29T23:33:02.422Z,100613.25
2022-12-29T23:35:29.208Z,100596.25
2022-12-29T23:37:55.874Z,100603.88
2022-12-29T23:40:22.671Z,100585.44
2022-12-29T23:42:49.367Z,100592.59
2022-12-29T23:45:16.206Z,100554.19
2022-12-29T23:47:42.883Z,100621.84
2022-12-29T23:50:09.799Z,100646.41
2022-12-29T23:52:36.556Z,100620.75
2022-12-29T23:55:03.467Z,100625.63
2022-12-29T23:57:30.332Z,100651.78
2022-12-29T23:59:57.049Z,100647.72
